sensor_id;sensor_type;location;lat;lon;timestamp;temperature;humidity
14873;DHT22;7528;48.576;19.122;2022-09-12T00:02:32;17.20;78.20
14873;DHT22;7528;48.576;19.122;2022-09-12T00:07:35;17.20;77.90
14873;DHT22;7528;48.576;19.122;2022-09-12T00:12:38;17.10;77.60
14873;DHT22;7528;48.576;19.122;2022-09-12T00:17:42;17.20;77.00
14873;DHT22;7528;48.576;19.122;2022-09-12T00:22:45;17.20;76.90
14873;DHT22;7528;48.576;19.122;2022-09-12T00:27:48;17.10;76.70
14873;DHT22;7528;48.576;19.122;2022-09-12T00:32:52;17.00;77.00
14873;DHT22;7528;48.576;19.122;2022-09-12T00:37:55;17.00;76.40
14873;DHT22;7528;48.576;19.122;2022-09-12T00:42:58;16.80;76.90
14873;DHT22;7528;48.576;19.122;2022-09-12T00:48:03;16.80;77.60
14873;DHT22;7528;48.576;19.122;2022-09-12T00:53:07;16.80;78.20
14873;DHT22;7528;48.576;19.122;2022-09-12T00:58:13;16.80;77.70
14873;DHT22;7528;48.576;19.122;2022-09-12T01:03:22;16.80;78.40
14873;DHT22;7528;48.576;19.122;2022-09-12T01:08:26;16.80;78.20
14873;DHT22;7528;48.576;19.122;2022-09-12T01:13:31;16.80;78.10
14873;DHT22;7528;48.576;19.122;2022-09-12T01:18:47;16.60;79.00
14873;DHT22;7528;48.576;19.122;2022-09-12T01:29:40;16.80;78.50
14873;DHT22;7528;48.576;19.122;2022-09-12T01:34:52;16.70;78.50
14873;DHT22;7528;48.576;19.122;2022-09-12T01:40:01;16.80;78.60
14873;DHT22;7528;48.576;19.122;2022-09-12T01:45:08;16.80;78.40
14873;DHT22;7528;48.576;19.122;2022-09-12T01:50:18;16.90;78.00
14873;DHT22;7528;48.576;19.122;2022-09-12T01:55:25;16.90;78.50
14873;DHT22;7528;48.576;19.122;2022-09-12T02:00:31;16.90;78.20
14873;DHT22;7528;48.576;19.122;2022-09-12T02:05:40;17.00;78.30
14873;DHT22;7528;48.576;19.122;2022-09-12T02:10:49;17.00;78.50
14873;DHT22;7528;48.576;19.122;2022-09-12T02:16:00;17.00;78.00
14873;DHT22;7528;48.576;19.122;2022-09-12T02:21:07;17.10;77.70
14873;DHT22;7528;48.576;19.122;2022-09-12T02:26:16;16.90;77.90
14873;DHT22;7528;48.576;19.122;2022-09-12T02:31:23;16.80;78.50
14873;DHT22;7528;48.576;19.122;2022-09-12T02:36:38;16.70;78.80
14873;DHT22;7528;48.576;19.122;2022-09-12T02:41:43;16.70;79.00
14873;DHT22;7528;48.576;19.122;2022-09-12T02:46:49;16.70;79.30
14873;DHT22;7528;48.576;19.122;2022-09-12T02:51:55;16.60;79.60
14873;DHT22;7528;48.576;19.122;2022-09-12T02:56:58;16.70;79.50
14873;DHT22;7528;48.576;19.122;2022-09-12T03:02:15;16.60;79.40
14873;DHT22;7528;48.576;19.122;2022-09-12T03:07:33;16.60;79.60
14873;DHT22;7528;48.576;19.122;2022-09-12T03:12:46;16.70;79.70
14873;DHT22;7528;48.576;19.122;2022-09-12T03:18:03;16.70;79.20
14873;DHT22;7528;48.576;19.122;2022-09-12T03:23:17;16.70;79.40
14873;DHT22;7528;48.576;19.122;2022-09-12T03:28:21;16.80;79.40
14873;DHT22;7528;48.576;19.122;2022-09-12T03:33:25;16.80;79.40
14873;DHT22;7528;48.576;19.122;2022-09-12T03:38:29;16.80;78.80
14873;DHT22;7528;48.576;19.122;2022-09-12T03:43:32;16.70;79.00
14873;DHT22;7528;48.576;19.122;2022-09-12T03:48:35;16.70;79.10
14873;DHT22;7528;48.576;19.122;2022-09-12T03:53:40;16.60;79.40
14873;DHT22;7528;48.576;19.122;2022-09-12T03:58:42;16.50;79.60
14873;DHT22;7528;48.576;19.122;2022-09-12T04:03:47;16.40;79.70
14873;DHT22;7528;48.576;19.122;2022-09-12T04:08:53;16.30;79.70
14873;DHT22;7528;48.576;19.122;2022-09-12T04:13:56;16.30;79.80
14873;DHT22;7528;48.576;19.122;2022-09-12T04:18:59;16.30;79.80
14873;DHT22;7528;48.576;19.122;2022-09-12T04:24:03;16.20;79.50
14873;DHT22;7528;48.576;19.122;2022-09-12T04:29:06;16.10;79.80
14873;DHT22;7528;48.576;19.122;2022-09-12T04:34:11;16.10;79.80
14873;DHT22;7528;48.576;19.122;2022-09-12T04:39:15;16.00;79.60
14873;DHT22;7528;48.576;19.122;2022-09-12T04:44:18;15.90;79.30
14873;DHT22;7528;48.576;19.122;2022-09-12T04:49:22;16.00;79.10
14873;DHT22;7528;48.576;19.122;2022-09-12T04:54:26;16.00;79.70
14873;DHT22;7528;48.576;19.122;2022-09-12T04:59:29;16.00;80.30
14873;DHT22;7528;48.576;19.122;2022-09-12T05:04:32;16.00;80.80
14873;DHT22;7528;48.576;19.122;2022-09-12T05:09:36;15.90;81.60
14873;DHT22;7528;48.576;19.122;2022-09-12T05:14:39;15.90;81.80
14873;DHT22;7528;48.576;19.122;2022-09-12T05:19:42;15.90;82.10
14873;DHT22;7528;48.576;19.122;2022-09-12T05:24:46;16.00;82.20
14873;DHT22;7528;48.576;19.122;2022-09-12T05:29:50;16.00;82.30
14873;DHT22;7528;48.576;19.122;2022-09-12T05:34:53;16.10;82.00
14873;DHT22;7528;48.576;19.122;2022-09-12T05:39:58;16.20;81.90
14873;DHT22;7528;48.576;19.122;2022-09-12T05:45:01;16.10;82.10
14873;DHT22;7528;48.576;19.122;2022-09-12T05:50:04;16.20;81.40
14873;DHT22;7528;48.576;19.122;2022-09-12T05:55:12;16.50;80.40
14873;DHT22;7528;48.576;19.122;2022-09-12T06:00:16;16.60;78.70
14873;DHT22;7528;48.576;19.122;2022-09-12T06:05:21;16.90;77.20
14873;DHT22;7528;48.576;19.122;2022-09-12T06:10:26;17.10;73.30
14873;DHT22;7528;48.576;19.122;2022-09-12T06:15:31;17.30;72.30
14873;DHT22;7528;48.576;19.122;2022-09-12T06:20:35;17.50;71.80
14873;DHT22;7528;48.576;19.122;2022-09-12T06:25:45;17.60;69.90
14873;DHT22;7528;48.576;19.122;2022-09-12T06:30:48;17.70;70.00
14873;DHT22;7528;48.576;19.122;2022-09-12T06:35:51;17.80;69.30
14873;DHT22;7528;48.576;19.122;2022-09-12T06:40:55;17.70;69.40
14873;DHT22;7528;48.576;19.122;2022-09-12T06:45:59;17.80;69.40
14873;DHT22;7528;48.576;19.122;2022-09-12T06:51:05;17.90;68.80
14873;DHT22;7528;48.576;19.122;2022-09-12T06:56:11;18.10;68.30
14873;DHT22;7528;48.576;19.122;2022-09-12T07:01:15;18.50;68.60
14873;DHT22;7528;48.576;19.122;2022-09-12T07:06:20;18.80;67.20
14873;DHT22;7528;48.576;19.122;2022-09-12T07:11:27;19.30;66.40
14873;DHT22;7528;48.576;19.122;2022-09-12T07:16:33;19.90;63.40
14873;DHT22;7528;48.576;19.122;2022-09-12T07:21:36;20.10;61.50
14873;DHT22;7528;48.576;19.122;2022-09-12T07:26:41;20.20;61.30
14873;DHT22;7528;48.576;19.122;2022-09-12T07:31:44;19.90;62.50
14873;DHT22;7528;48.576;19.122;2022-09-12T07:36:47;20.00;61.10
14873;DHT22;7528;48.576;19.122;2022-09-12T07:41:52;19.90;63.40
14873;DHT22;7528;48.576;19.122;2022-09-12T07:46:55;19.90;62.80
14873;DHT22;7528;48.576;19.122;2022-09-12T07:51:58;19.90;61.50
14873;DHT22;7528;48.576;19.122;2022-09-12T07:57:02;20.00;62.20
14873;DHT22;7528;48.576;19.122;2022-09-12T08:02:05;20.30;61.70
14873;DHT22;7528;48.576;19.122;2022-09-12T08:07:10;20.50;60.10
14873;DHT22;7528;48.576;19.122;2022-09-12T08:12:15;20.60;59.60
14873;DHT22;7528;48.576;19.122;2022-09-12T08:17:18;21.20;60.00
14873;DHT22;7528;48.576;19.122;2022-09-12T08:22:21;22.20;56.20
14873;DHT22;7528;48.576;19.122;2022-09-12T08:27:25;22.40;55.10
14873;DHT22;7528;48.576;19.122;2022-09-12T08:32:28;22.10;53.90
14873;DHT22;7528;48.576;19.122;2022-09-12T08:37:31;22.00;54.10
14873;DHT22;7528;48.576;19.122;2022-09-12T08:42:47;22.10;54.10
14873;DHT22;7528;48.576;19.122;2022-09-12T08:47:55;22.10;53.70
14873;DHT22;7528;48.576;19.122;2022-09-12T08:53:01;22.00;53.30
14873;DHT22;7528;48.576;19.122;2022-09-12T08:58:12;22.00;53.20
14873;DHT22;7528;48.576;19.122;2022-09-12T09:09:05;22.20;52.90
14873;DHT22;7528;48.576;19.122;2022-09-12T09:14:30;22.20;52.50
14873;DHT22;7528;48.576;19.122;2022-09-12T09:19:54;22.50;52.40
14873;DHT22;7528;48.576;19.122;2022-09-12T09:25:03;22.60;49.40
14873;DHT22;7528;48.576;19.122;2022-09-12T09:30:13;22.40;51.00
14873;DHT22;7528;48.576;19.122;2022-09-12T09:35:20;22.70;51.00
14873;DHT22;7528;48.576;19.122;2022-09-12T09:40:28;23.30;47.00
14873;DHT22;7528;48.576;19.122;2022-09-12T09:45:34;24.10;46.50
14873;DHT22;7528;48.576;19.122;2022-09-12T09:50:39;23.90;46.10
14873;DHT22;7528;48.576;19.122;2022-09-12T09:55:43;23.70;45.10
14873;DHT22;7528;48.576;19.122;2022-09-12T10:00:48;24.00;46.60
14873;DHT22;7528;48.576;19.122;2022-09-12T10:05:52;24.00;47.50
14873;DHT22;7528;48.576;19.122;2022-09-12T10:10:59;24.50;45.70
14873;DHT22;7528;48.576;19.122;2022-09-12T10:16:06;25.20;42.90
14873;DHT22;7528;48.576;19.122;2022-09-12T10:21:29;25.70;42.00
14873;DHT22;7528;48.576;19.122;2022-09-12T10:26:38;25.90;42.60
14873;DHT22;7528;48.576;19.122;2022-09-12T10:31:46;26.70;40.60
14873;DHT22;7528;48.576;19.122;2022-09-12T10:36:53;26.70;40.40
14873;DHT22;7528;48.576;19.122;2022-09-12T10:41:56;26.70;39.70
14873;DHT22;7528;48.576;19.122;2022-09-12T10:47:18;26.80;39.80
14873;DHT22;7528;48.576;19.122;2022-09-12T10:52:23;26.90;40.00
14873;DHT22;7528;48.576;19.122;2022-09-12T10:57:48;27.20;41.10
14873;DHT22;7528;48.576;19.122;2022-09-12T11:03:08;27.70;39.80
14873;DHT22;7528;48.576;19.122;2022-09-12T11:08:28;27.60;39.00
14873;DHT22;7528;48.576;19.122;2022-09-12T11:13:48;27.00;39.40
14873;DHT22;7528;48.576;19.122;2022-09-12T11:24:42;27.00;41.50
14873;DHT22;7528;48.576;19.122;2022-09-12T11:29:50;27.10;39.20
14873;DHT22;7528;48.576;19.122;2022-09-12T11:35:02;27.00;38.60
14873;DHT22;7528;48.576;19.122;2022-09-12T11:40:20;26.80;37.60
14873;DHT22;7528;48.576;19.122;2022-09-12T11:45:31;26.30;38.50
14873;DHT22;7528;48.576;19.122;2022-09-12T11:50:37;26.40;39.00
14873;DHT22;7528;48.576;19.122;2022-09-12T11:55:49;26.40;35.80
14873;DHT22;7528;48.576;19.122;2022-09-12T12:00:58;26.10;37.20
14873;DHT22;7528;48.576;19.122;2022-09-12T12:06:10;26.20;36.90
14873;DHT22;7528;48.576;19.122;2022-09-12T12:11:15;26.00;38.10
14873;DHT22;7528;48.576;19.122;2022-09-12T12:16:26;26.00;38.10
14873;DHT22;7528;48.576;19.122;2022-09-12T12:21:42;26.20;38.90
14873;DHT22;7528;48.576;19.122;2022-09-12T12:27:00;26.40;38.30
14873;DHT22;7528;48.576;19.122;2022-09-12T12:32:24;26.40;38.50
14873;DHT22;7528;48.576;19.122;2022-09-12T12:37:53;26.40;37.20
14873;DHT22;7528;48.576;19.122;2022-09-12T12:43:04;26.20;35.80
14873;DHT22;7528;48.576;19.122;2022-09-12T12:48:17;26.20;37.30
14873;DHT22;7528;48.576;19.122;2022-09-12T12:53:24;26.20;37.20
14873;DHT22;7528;48.576;19.122;2022-09-12T12:58:32;26.00;37.30
14873;DHT22;7528;48.576;19.122;2022-09-12T13:03:38;26.20;37.50
14873;DHT22;7528;48.576;19.122;2022-09-12T13:08:53;26.10;36.40
14873;DHT22;7528;48.576;19.122;2022-09-12T13:13:58;25.60;37.70
14873;DHT22;7528;48.576;19.122;2022-09-12T13:19:04;25.60;37.20
14873;DHT22;7528;48.576;19.122;2022-09-12T13:24:14;25.80;36.50
14873;DHT22;7528;48.576;19.122;2022-09-12T13:29:20;25.70;35.00
14873;DHT22;7528;48.576;19.122;2022-09-12T13:34:26;25.70;36.40
14873;DHT22;7528;48.576;19.122;2022-09-12T13:39:43;25.70;35.80
14873;DHT22;7528;48.576;19.122;2022-09-12T13:44:49;25.70;34.70
14873;DHT22;7528;48.576;19.122;2022-09-12T13:49:55;25.60;35.00
14873;DHT22;7528;48.576;19.122;2022-09-12T13:55:04;25.60;33.90
14873;DHT22;7528;48.576;19.122;2022-09-12T14:00:13;25.40;32.80
14873;DHT22;7528;48.576;19.122;2022-09-12T14:05:22;25.20;33.00
14873;DHT22;7528;48.576;19.122;2022-09-12T14:10:30;25.10;32.70
14873;DHT22;7528;48.576;19.122;2022-09-12T14:15:35;24.80;33.20
14873;DHT22;7528;48.576;19.122;2022-09-12T14:20:39;24.80;33.00
14873;DHT22;7528;48.576;19.122;2022-09-12T14:25:44;24.50;34.10
14873;DHT22;7528;48.576;19.122;2022-09-12T14:30:59;24.50;33.60
14873;DHT22;7528;48.576;19.122;2022-09-12T14:36:09;24.70;35.40
14873;DHT22;7528;48.576;19.122;2022-09-12T14:41:21;24.70;35.40
14873;DHT22;7528;48.576;19.122;2022-09-12T14:46:29;24.60;33.60
14873;DHT22;7528;48.576;19.122;2022-09-12T14:51:35;24.50;33.40
14873;DHT22;7528;48.576;19.122;2022-09-12T14:56:42;24.30;34.20
14873;DHT22;7528;48.576;19.122;2022-09-12T15:01:45;24.40;34.90
14873;DHT22;7528;48.576;19.122;2022-09-12T15:06:48;24.40;33.80
14873;DHT22;7528;48.576;19.122;2022-09-12T15:11:52;24.30;35.00
14873;DHT22;7528;48.576;19.122;2022-09-12T15:16:55;24.20;35.20
14873;DHT22;7528;48.576;19.122;2022-09-12T15:21:58;24.20;36.30
14873;DHT22;7528;48.576;19.122;2022-09-12T15:27:07;24.20;37.20
14873;DHT22;7528;48.576;19.122;2022-09-12T15:32:22;24.20;37.70
14873;DHT22;7528;48.576;19.122;2022-09-12T15:37:25;24.20;37.70
14873;DHT22;7528;48.576;19.122;2022-09-12T15:42:29;24.00;37.40
14873;DHT22;7528;48.576;19.122;2022-09-12T15:47:32;24.00;39.20
14873;DHT22;7528;48.576;19.122;2022-09-12T15:52:35;23.90;38.50
14873;DHT22;7528;48.576;19.122;2022-09-12T15:57:40;23.70;37.90
14873;DHT22;7528;48.576;19.122;2022-09-12T16:02:43;23.70;39.60
14873;DHT22;7528;48.576;19.122;2022-09-12T16:07:46;23.70;41.60
14873;DHT22;7528;48.576;19.122;2022-09-12T16:12:51;23.60;42.20
14873;DHT22;7528;48.576;19.122;2022-09-12T16:17:53;23.40;42.70
14873;DHT22;7528;48.576;19.122;2022-09-12T16:22:56;23.20;44.70
14873;DHT22;7528;48.576;19.122;2022-09-12T16:28:01;23.10;45.60
14873;DHT22;7528;48.576;19.122;2022-09-12T16:33:06;22.80;45.30
14873;DHT22;7528;48.576;19.122;2022-09-12T16:38:09;22.50;47.40
14873;DHT22;7528;48.576;19.122;2022-09-12T16:43:13;22.30;47.90
14873;DHT22;7528;48.576;19.122;2022-09-12T16:48:17;22.20;46.40
14873;DHT22;7528;48.576;19.122;2022-09-12T16:53:20;21.90;47.40
14873;DHT22;7528;48.576;19.122;2022-09-12T16:58:25;21.50;49.10
14873;DHT22;7528;48.576;19.122;2022-09-12T17:03:28;21.40;48.50
14873;DHT22;7528;48.576;19.122;2022-09-12T17:08:33;21.10;48.70
14873;DHT22;7528;48.576;19.122;2022-09-12T17:13:38;21.00;48.80
14873;DHT22;7528;48.576;19.122;2022-09-12T17:18:41;20.80;48.90
14873;DHT22;7528;48.576;19.122;2022-09-12T17:23:44;20.60;48.60
14873;DHT22;7528;48.576;19.122;2022-09-12T17:28:49;20.40;48.90
14873;DHT22;7528;48.576;19.122;2022-09-12T17:33:55;20.30;48.50
14873;DHT22;7528;48.576;19.122;2022-09-12T17:39:00;20.10;50.90
14873;DHT22;7528;48.576;19.122;2022-09-12T17:44:04;19.90;50.70
14873;DHT22;7528;48.576;19.122;2022-09-12T17:49:11;19.90;50.10
14873;DHT22;7528;48.576;19.122;2022-09-12T17:54:15;19.70;48.80
14873;DHT22;7528;48.576;19.122;2022-09-12T17:59:21;19.50;49.40
14873;DHT22;7528;48.576;19.122;2022-09-12T18:04:25;19.40;50.40
14873;DHT22;7528;48.576;19.122;2022-09-12T18:09:28;19.20;52.20
14873;DHT22;7528;48.576;19.122;2022-09-12T18:14:33;19.10;53.00
14873;DHT22;7528;48.576;19.122;2022-09-12T18:19:37;19.00;53.70
14873;DHT22;7528;48.576;19.122;2022-09-12T18:24:40;19.00;54.10
14873;DHT22;7528;48.576;19.122;2022-09-12T18:29:44;18.80;54.20
14873;DHT22;7528;48.576;19.122;2022-09-12T18:34:47;18.60;55.10
14873;DHT22;7528;48.576;19.122;2022-09-12T18:39:50;18.60;54.40
14873;DHT22;7528;48.576;19.122;2022-09-12T18:44:54;18.50;55.30
14873;DHT22;7528;48.576;19.122;2022-09-12T18:49:57;18.30;55.60
14873;DHT22;7528;48.576;19.122;2022-09-12T18:55:00;18.10;56.40
14873;DHT22;7528;48.576;19.122;2022-09-12T19:00:06;18.10;56.30
14873;DHT22;7528;48.576;19.122;2022-09-12T19:05:10;18.00;56.10
14873;DHT22;7528;48.576;19.122;2022-09-12T19:10:13;17.90;56.00
14873;DHT22;7528;48.576;19.122;2022-09-12T19:15:18;17.80;57.30
14873;DHT22;7528;48.576;19.122;2022-09-12T19:20:21;17.60;57.00
14873;DHT22;7528;48.576;19.122;2022-09-12T19:25:24;17.60;58.00
14873;DHT22;7528;48.576;19.122;2022-09-12T19:30:28;17.40;58.00
14873;DHT22;7528;48.576;19.122;2022-09-12T19:35:32;17.40;58.20
14873;DHT22;7528;48.576;19.122;2022-09-12T19:40:35;17.20;58.50
14873;DHT22;7528;48.576;19.122;2022-09-12T19:45:46;17.10;58.80
14873;DHT22;7528;48.576;19.122;2022-09-12T19:50:50;17.00;59.40
14873;DHT22;7528;48.576;19.122;2022-09-12T19:55:57;16.90;59.50
14873;DHT22;7528;48.576;19.122;2022-09-12T20:01:08;16.90;59.70
14873;DHT22;7528;48.576;19.122;2022-09-12T20:06:12;16.80;60.60
14873;DHT22;7528;48.576;19.122;2022-09-12T20:11:17;16.60;60.70
14873;DHT22;7528;48.576;19.122;2022-09-12T20:16:24;16.50;61.70
14873;DHT22;7528;48.576;19.122;2022-09-12T20:21:30;16.30;62.10
14873;DHT22;7528;48.576;19.122;2022-09-12T20:26:34;16.30;62.20
14873;DHT22;7528;48.576;19.122;2022-09-12T20:31:40;16.30;62.10
14873;DHT22;7528;48.576;19.122;2022-09-12T20:36:43;16.20;62.80
14873;DHT22;7528;48.576;19.122;2022-09-12T20:41:46;16.10;62.90
14873;DHT22;7528;48.576;19.122;2022-09-12T20:46:51;16.00;63.40
14873;DHT22;7528;48.576;19.122;2022-09-12T20:51:54;15.90;63.70
14873;DHT22;7528;48.576;19.122;2022-09-12T20:56:57;15.80;64.30
14873;DHT22;7528;48.576;19.122;2022-09-12T21:02:01;15.70;64.50
14873;DHT22;7528;48.576;19.122;2022-09-12T21:07:04;15.70;64.70
14873;DHT22;7528;48.576;19.122;2022-09-12T21:12:07;15.50;65.00
14873;DHT22;7528;48.576;19.122;2022-09-12T21:17:11;15.50;65.20
14873;DHT22;7528;48.576;19.122;2022-09-12T21:22:14;15.40;65.60
14873;DHT22;7528;48.576;19.122;2022-09-12T21:27:17;15.40;65.70
14873;DHT22;7528;48.576;19.122;2022-09-12T21:32:22;15.20;65.80
14873;DHT22;7528;48.576;19.122;2022-09-12T21:37:25;15.20;66.20
14873;DHT22;7528;48.576;19.122;2022-09-12T21:42:28;15.10;66.20
14873;DHT22;7528;48.576;19.122;2022-09-12T21:47:32;15.00;66.60
14873;DHT22;7528;48.576;19.122;2022-09-12T21:52:35;15.00;66.50
14873;DHT22;7528;48.576;19.122;2022-09-12T21:57:38;15.00;66.20
14873;DHT22;7528;48.576;19.122;2022-09-12T22:02:43;14.80;67.10
14873;DHT22;7528;48.576;19.122;2022-09-12T22:07:46;14.80;67.40
14873;DHT22;7528;48.576;19.122;2022-09-12T22:12:49;14.60;67.90
14873;DHT22;7528;48.576;19.122;2022-09-12T22:17:54;14.60;67.90
14873;DHT22;7528;48.576;19.122;2022-09-12T22:22:57;14.60;68.00
14873;DHT22;7528;48.576;19.122;2022-09-12T22:28:17;14.60;68.00
14873;DHT22;7528;48.576;19.122;2022-09-12T22:33:21;14.50;68.40
14873;DHT22;7528;48.576;19.122;2022-09-12T22:38:24;14.50;68.50
14873;DHT22;7528;48.576;19.122;2022-09-12T22:43:27;14.50;68.50
14873;DHT22;7528;48.576;19.122;2022-09-12T22:48:32;14.30;68.60
14873;DHT22;7528;48.576;19.122;2022-09-12T22:53:35;14.30;68.70
14873;DHT22;7528;48.576;19.122;2022-09-12T22:58:38;14.20;69.00
14873;DHT22;7528;48.576;19.122;2022-09-12T23:03:43;14.20;68.90
14873;DHT22;7528;48.576;19.122;2022-09-12T23:08:46;14.10;69.10
14873;DHT22;7528;48.576;19.122;2022-09-12T23:13:50;14.00;69.80
14873;DHT22;7528;48.576;19.122;2022-09-12T23:18:54;13.90;70.20
14873;DHT22;7528;48.576;19.122;2022-09-12T23:23:57;14.00;70.10
14873;DHT22;7528;48.576;19.122;2022-09-12T23:29:01;14.00;69.90
14873;DHT22;7528;48.576;19.122;2022-09-12T23:34:06;13.90;70.10
14873;DHT22;7528;48.576;19.122;2022-09-12T23:39:09;13.80;70.20
14873;DHT22;7528;48.576;19.122;2022-09-12T23:44:12;13.70;70.30
14873;DHT22;7528;48.576;19.122;2022-09-12T23:49:17;13.60;70.40
14873;DHT22;7528;48.576;19.122;2022-09-12T23:54:20;13.50;70.60
14873;DHT22;7528;48.576;19.122;2022-09-12T23:59:23;13.60;70.50
